createdAt,value
2023-04-19T00:00:09.865Z,2.45
2023-04-19T00:05:13.900Z,2.53
2023-04-19T00:10:16.214Z,2.35
2023-04-19T00:15:17.938Z,1.58
2023-04-19T00:20:21.350Z,2.50
2023-04-19T00:25:22.968Z,2.17
2023-04-19T00:30:24.585Z,3.45
2023-04-19T00:35:26.218Z,2.63
2023-04-19T00:40:27.914Z,3.40
2023-04-19T00:45:29.647Z,2.38
2023-04-19T00:50:31.266Z,2.67
2023-04-19T00:55:33.175Z,2.20
2023-04-19T01:00:35.883Z,4.50
2023-04-19T01:05:39.357Z,4.35
2023-04-19T01:10:42.006Z,2.33
2023-04-19T01:15:44.240Z,2.45
2023-04-19T01:20:45.878Z,3.80
2023-04-19T01:25:47.776Z,2.35
2023-04-19T01:30:53.941Z,1.75
2023-04-19T01:35:55.705Z,4.18
2023-04-19T01:40:57.466Z,2.10
2023-04-19T01:45:59.022Z,1.70
2023-04-19T01:51:00.677Z,2.28
2023-04-19T01:56:02.225Z,2.67
2023-04-19T02:01:03.801Z,1.75
2023-04-19T02:06:05.549Z,3.45
2023-04-19T02:11:11.283Z,2.05
2023-04-19T02:16:13.139Z,4.85
2023-04-19T02:21:14.848Z,1.70
2023-04-19T02:26:16.409Z,1.77
2023-04-19T02:31:18.026Z,2.08
2023-04-19T02:36:19.649Z,2.67
2023-04-19T02:41:21.230Z,2.15
2023-04-19T02:46:22.865Z,2.17
2023-04-19T02:51:24.514Z,1.92
2023-04-19T02:56:26.185Z,2.63
2023-04-19T03:01:27.800Z,4.63
2023-04-19T03:06:29.415Z,3.30
2023-04-19T03:11:31.155Z,5.32
2023-04-19T03:16:33.786Z,2.63
2023-04-19T03:21:35.372Z,1.95
2023-04-19T03:26:36.929Z,1.92
2023-04-19T03:31:38.620Z,1.92
2023-04-19T03:36:40.887Z,2.75
2023-04-19T03:41:42.519Z,1.88
2023-04-19T03:46:46.477Z,1.67
2023-04-19T03:51:48.423Z,3.05
2023-04-19T03:56:50.024Z,2.17
2023-04-19T04:01:51.753Z,2.47
2023-04-19T04:06:53.356Z,2.40
2023-04-19T04:11:54.977Z,4.10
2023-04-19T04:16:56.533Z,2.25
2023-04-19T04:21:58.316Z,2.10
2023-04-19T04:27:03.250Z,4.97
2023-04-19T04:32:10.790Z,1.98
2023-04-19T04:37:12.656Z,1.95
2023-04-19T04:42:14.690Z,2.55
2023-04-19T04:47:18.204Z,4.38
2023-04-19T04:52:19.841Z,2.05
2023-04-19T04:57:21.590Z,1.63
2023-04-19T05:02:24.201Z,3.60
2023-04-19T05:07:25.821Z,3.67
2023-04-19T05:12:27.482Z,1.88
2023-04-19T05:17:29.100Z,2.05
2023-04-19T05:22:30.894Z,1.58
2023-04-19T05:27:32.541Z,3.58
2023-04-19T05:32:34.755Z,4.57
2023-04-19T05:37:36.896Z,2.50
2023-04-19T05:42:38.729Z,2.60
2023-04-19T05:47:40.850Z,2.60
2023-04-19T05:52:42.448Z,3.38
2023-04-19T05:57:44.084Z,4.85
2023-04-19T06:02:46.063Z,2.30
2023-04-19T06:07:55.316Z,1.60
2023-04-19T06:13:04.073Z,6.93
2023-04-19T06:18:10.315Z,2.55
2023-04-19T06:23:20.855Z,3.22
2023-04-19T06:28:22.951Z,3.42
2023-04-19T06:33:24.646Z,3.75
2023-04-19T06:38:26.328Z,2.95
2023-04-19T06:43:27.916Z,2.03
2023-04-19T06:48:29.499Z,2.40
2023-04-19T06:53:31.197Z,2.78
2023-04-19T06:58:34.842Z,3.20
2023-04-19T07:03:37.174Z,2.70
2023-04-19T07:08:48.758Z,2.53
2023-04-19T07:13:51.848Z,2.92
2023-04-19T07:18:53.423Z,2.08
2023-04-19T07:23:54.997Z,1.67
2023-04-19T07:28:57.135Z,3.05
2023-04-19T07:33:58.725Z,2.40
2023-04-19T07:39:00.431Z,2.50
2023-04-19T07:44:02.077Z,6.07
2023-04-19T07:49:03.683Z,4.78
2023-04-19T07:54:05.298Z,2.65
2023-04-19T07:59:08.854Z,2.90
2023-04-19T08:04:11.314Z,6.50
2023-04-19T08:09:13.274Z,4.15
2023-04-19T08:14:22.319Z,3.17
2023-04-19T08:19:32.443Z,2.28
2023-04-19T08:24:34.069Z,3.67
2023-04-19T08:29:36.103Z,3.47
2023-04-19T08:34:39.268Z,3.58
2023-04-19T08:39:41.057Z,3.35
2023-04-19T08:45:05.712Z,3.85
2023-04-19T08:50:24.171Z,4.93
2023-04-19T08:55:31.039Z,7.05
2023-04-19T09:00:34.432Z,4.93
2023-04-19T09:05:37.103Z,5.85
2023-04-19T09:10:52.641Z,4.25
2023-04-19T09:15:57.048Z,5.72
2023-04-19T09:20:58.923Z,4.32
2023-04-19T09:36:37.632Z,4.60
2023-04-19T09:41:53.582Z,5.22
2023-04-19T09:46:55.809Z,5.78
2023-04-19T09:51:57.874Z,3.92
2023-04-19T09:57:01.777Z,5.57
2023-04-19T10:02:05.102Z,5.13
2023-04-19T10:07:29.149Z,6.70
2023-04-19T10:12:52.258Z,4.13
2023-04-19T10:17:53.636Z,7.00
2023-04-19T10:22:55.516Z,8.55
2023-04-19T10:27:58.932Z,7.25
2023-04-19T10:33:03.128Z,7.20
2023-04-19T10:38:07.799Z,8.88
2023-04-19T10:43:17.039Z,8.00
2023-04-19T10:48:30.664Z,5.03
2023-04-19T10:53:50.912Z,10.25
2023-04-19T10:59:01.367Z,6.05
2023-04-19T11:04:03.260Z,6.55
2023-04-19T11:09:07.299Z,8.55
2023-04-19T11:14:09.813Z,6.43
2023-04-19T11:19:18.428Z,14.75
2023-04-19T11:24:21.103Z,9.25
2023-04-19T11:29:22.877Z,16.10
2023-04-19T11:34:24.522Z,8.43
2023-04-19T11:39:26.238Z,7.28
2023-04-19T11:44:27.882Z,8.40
2023-04-19T11:49:34.068Z,6.25
2023-04-19T11:54:35.717Z,10.73
2023-04-19T11:59:37.333Z,9.70
2023-04-19T12:04:40.217Z,8.43
2023-04-19T12:09:42.016Z,8.98
2023-04-19T12:14:52.729Z,11.00
2023-04-19T12:19:54.322Z,9.88
2023-04-19T12:24:56.110Z,8.10
2023-04-19T12:29:57.703Z,9.40
2023-04-19T12:34:59.318Z,8.55
2023-04-19T12:40:01.168Z,6.35
2023-04-19T12:45:02.862Z,9.02
2023-04-19T12:50:04.958Z,8.40
2023-04-19T12:55:07.275Z,7.38
2023-04-19T13:00:10.558Z,9.82
2023-04-19T13:05:13.024Z,8.23
2023-04-19T13:10:14.608Z,11.25
2023-04-19T13:15:16.337Z,13.30
2023-04-19T13:20:20.986Z,9.05
2023-04-19T13:25:22.808Z,16.90
2023-04-19T13:30:24.506Z,11.00
2023-04-19T13:35:27.352Z,11.48
2023-04-19T13:40:29.013Z,9.90
2023-04-19T13:45:30.634Z,13.80
2023-04-19T13:50:32.270Z,10.13
2023-04-19T13:55:34.086Z,12.27
2023-04-19T14:00:35.784Z,14.20
2023-04-19T14:05:37.499Z,11.60
2023-04-19T14:10:40.297Z,14.10
2023-04-19T14:15:42.026Z,13.40
2023-04-19T14:20:43.697Z,12.50
2023-04-19T14:25:45.356Z,11.43
2023-04-19T14:30:47.012Z,13.65
2023-04-19T14:35:48.660Z,12.93
2023-04-19T14:40:50.346Z,11.75
2023-04-19T14:45:52.985Z,10.73
2023-04-19T14:50:55.852Z,12.35
2023-04-19T14:55:57.510Z,13.23
2023-04-19T15:00:59.603Z,10.30
2023-04-19T15:06:01.291Z,11.95
2023-04-19T15:11:02.946Z,10.40
2023-04-19T15:16:05.963Z,14.18
2023-04-19T15:21:07.685Z,13.68
2023-04-19T15:26:09.850Z,10.40
2023-04-19T15:31:11.624Z,10.75
2023-04-19T15:36:13.333Z,11.65
2023-04-19T15:41:15.609Z,11.90
2023-04-19T15:46:17.526Z,13.18
2023-04-19T15:51:19.220Z,12.85
2023-04-19T15:56:21.316Z,11.05
2023-04-19T16:01:23.391Z,15.18
2023-04-19T16:06:25.269Z,13.35
2023-04-19T16:11:26.963Z,13.90
2023-04-19T16:16:31.341Z,13.98
2023-04-19T16:21:33.011Z,16.73
2023-04-19T16:26:34.667Z,14.10
2023-04-19T16:31:36.385Z,13.48
2023-04-19T16:36:38.146Z,9.63
2023-04-19T16:41:40.154Z,10.82
2023-04-19T16:46:43.082Z,9.68
2023-04-19T16:51:44.806Z,8.57
2023-04-19T16:56:46.656Z,8.93
2023-04-19T17:01:48.866Z,7.38
2023-04-19T17:06:52.434Z,8.43
2023-04-19T17:11:55.171Z,9.50
2023-04-19T17:16:57.023Z,8.00
2023-04-19T17:22:05.125Z,6.65
2023-04-19T17:27:07.128Z,6.60
2023-04-19T17:32:09.213Z,5.85
2023-04-19T17:37:11.323Z,8.57
2023-04-19T17:42:13.691Z,7.13
2023-04-19T17:47:18.849Z,4.57
2023-04-19T17:52:24.038Z,4.88
2023-04-19T17:57:29.517Z,5.20
2023-04-19T18:02:32.449Z,6.60
2023-04-19T18:07:37.122Z,4.75
2023-04-19T18:12:39.220Z,7.75
2023-04-19T18:17:41.883Z,7.20
2023-04-19T18:22:44.978Z,5.78
2023-04-19T18:27:47.509Z,6.03
2023-04-19T18:32:49.786Z,7.20
2023-04-19T18:37:52.254Z,9.15
2023-04-19T18:42:56.467Z,7.00
2023-04-19T18:48:01.736Z,5.90
2023-04-19T18:53:04.343Z,5.88
2023-04-19T18:58:06.892Z,6.00
2023-04-19T19:03:29.021Z,5.50
2023-04-19T19:08:34.134Z,5.32
2023-04-19T19:13:36.451Z,7.53
2023-04-19T19:18:39.027Z,5.40
2023-04-19T19:23:42.874Z,4.72
2023-04-19T19:28:47.319Z,3.92
2023-04-19T19:33:57.054Z,3.92
2023-04-19T19:39:15.054Z,4.20
2023-04-19T19:44:17.808Z,4.80
2023-04-19T19:49:20.160Z,4.40
2023-04-19T19:54:22.688Z,6.05
2023-04-19T19:59:29.640Z,5.15
2023-04-19T20:04:35.577Z,9.20
2023-04-19T20:09:38.604Z,4.43
2023-04-19T20:14:41.493Z,4.90
2023-04-19T20:19:45.525Z,5.03
2023-04-19T20:24:48.349Z,4.57
2023-04-19T20:29:50.682Z,4.85
2023-04-19T20:34:53.496Z,6.22
2023-04-19T20:39:58.535Z,5.07
2023-04-19T20:45:01.410Z,4.40
2023-04-19T20:50:04.758Z,4.10
2023-04-19T20:55:08.118Z,4.88
2023-04-19T21:00:10.496Z,4.32
2023-04-19T21:05:12.283Z,6.30
2023-04-19T21:10:14.166Z,4.38
2023-04-19T21:15:16.052Z,6.65
2023-04-19T21:20:18.290Z,6.45
2023-04-19T21:25:20.047Z,4.15
2023-04-19T21:30:23.683Z,6.88
2023-04-19T21:35:25.278Z,4.80
2023-04-19T21:40:26.916Z,3.60
2023-04-19T21:45:29.405Z,5.07
2023-04-19T21:50:30.968Z,3.42
2023-04-19T21:55:32.743Z,6.30
2023-04-19T22:00:34.376Z,3.20
2023-04-19T22:05:36.415Z,4.32
2023-04-19T22:10:39.370Z,4.50
2023-04-19T22:15:41.024Z,4.25
2023-04-19T22:20:43.527Z,4.00
2023-04-19T22:25:45.172Z,6.18
2023-04-19T22:30:46.828Z,4.60
2023-04-19T22:35:48.980Z,6.85
2023-04-19T22:40:50.617Z,5.13
2023-04-19T22:45:52.316Z,4.78
2023-04-19T22:50:54.075Z,6.30
2023-04-19T22:55:55.682Z,5.53
2023-04-19T23:00:57.302Z,6.25
2023-04-19T23:05:59.266Z,4.93
2023-04-19T23:11:00.986Z,4.95
2023-04-19T23:16:03.202Z,5.15
2023-04-19T23:21:04.948Z,4.28
2023-04-19T23:26:06.524Z,6.97
2023-04-19T23:31:08.569Z,4.13
2023-04-19T23:36:10.312Z,3.50
2023-04-19T23:41:14.705Z,4.65
2023-04-19T23:46:16.402Z,5.03
2023-04-19T23:51:18.040Z,3.30
2023-04-19T23:56:19.732Z,2.95
